sensor_id;sensor_type;location;lat;lon;timestamp;P1;durP1;ratioP1;P2;durP2;ratioP2
24451;SDS011;13350;50.984;5.822;2023-05-10T00:01:52;8.38;;;7.07;;
24451;SDS011;13350;50.984;5.822;2023-05-10T00:04:19;8.48;;;6.97;;
24451;SDS011;13350;50.984;5.822;2023-05-10T00:06:47;8.88;;;7.35;;
24451;SDS011;13350;50.984;5.822;2023-05-10T00:09:15;7.43;;;6.40;;
24451;SDS011;13350;50.984;5.822;2023-05-10T00:11:42;8.98;;;7.28;;
24451;SDS011;13350;50.984;5.822;2023-05-10T00:14:09;8.55;;;7.15;;
24451;SDS011;13350;50.984;5.822;2023-05-10T00:16:37;10.68;;;7.55;;
24451;SDS011;13350;50.984;5.822;2023-05-10T00:19:04;7.97;;;7.18;;
24451;SDS011;13350;50.984;5.822;2023-05-10T00:21:32;9.73;;;7.75;;
24451;SDS011;13350;50.984;5.822;2023-05-10T00:23:59;11.57;;;8.77;;
24451;SDS011;13350;50.984;5.822;2023-05-10T00:26:28;14.35;;;10.05;;
24451;SDS011;13350;50.984;5.822;2023-05-10T00:28:55;14.13;;;9.38;;
24451;SDS011;13350;50.984;5.822;2023-05-10T00:31:23;13.70;;;8.90;;
24451;SDS011;13350;50.984;5.822;2023-05-10T00:33:51;11.95;;;8.95;;
24451;SDS011;13350;50.984;5.822;2023-05-10T00:36:18;11.55;;;8.55;;
24451;SDS011;13350;50.984;5.822;2023-05-10T00:38:46;12.00;;;8.30;;
24451;SDS011;13350;50.984;5.822;2023-05-10T00:41:13;11.80;;;8.27;;
24451;SDS011;13350;50.984;5.822;2023-05-10T00:43:42;11.77;;;9.32;;
24451;SDS011;13350;50.984;5.822;2023-05-10T00:46:09;12.57;;;9.75;;
24451;SDS011;13350;50.984;5.822;2023-05-10T00:48:37;13.13;;;9.00;;
24451;SDS011;13350;50.984;5.822;2023-05-10T00:51:04;14.20;;;9.95;;
24451;SDS011;13350;50.984;5.822;2023-05-10T00:53:32;12.73;;;10.32;;
24451;SDS011;13350;50.984;5.822;2023-05-10T00:56:01;14.52;;;10.88;;
24451;SDS011;13350;50.984;5.822;2023-05-10T00:58:28;14.45;;;9.90;;
24451;SDS011;13350;50.984;5.822;2023-05-10T01:00:57;13.50;;;10.27;;
24451;SDS011;13350;50.984;5.822;2023-05-10T01:03:26;12.27;;;10.48;;
24451;SDS011;13350;50.984;5.822;2023-05-10T01:05:53;12.15;;;10.18;;
24451;SDS011;13350;50.984;5.822;2023-05-10T01:08:21;13.23;;;10.93;;
24451;SDS011;13350;50.984;5.822;2023-05-10T01:10:48;13.02;;;10.77;;
24451;SDS011;13350;50.984;5.822;2023-05-10T01:13:18;12.77;;;10.75;;
24451;SDS011;13350;50.984;5.822;2023-05-10T01:15:55;13.43;;;10.50;;
24451;SDS011;13350;50.984;5.822;2023-05-10T01:18:25;13.25;;;9.98;;
24451;SDS011;13350;50.984;5.822;2023-05-10T01:20:56;12.00;;;10.25;;
24451;SDS011;13350;50.984;5.822;2023-05-10T01:23:35;13.02;;;9.98;;
24451;SDS011;13350;50.984;5.822;2023-05-10T01:26:16;10.85;;;9.43;;
24451;SDS011;13350;50.984;5.822;2023-05-10T01:29:11;10.77;;;9.50;;
24451;SDS011;13350;50.984;5.822;2023-05-10T01:31:54;10.50;;;9.13;;
24451;SDS011;13350;50.984;5.822;2023-05-10T01:34:42;10.20;;;9.13;;
24451;SDS011;13350;50.984;5.822;2023-05-10T01:37:15;10.45;;;8.30;;
24451;SDS011;13350;50.984;5.822;2023-05-10T01:39:49;9.87;;;7.80;;
24451;SDS011;13350;50.984;5.822;2023-05-10T01:42:25;9.48;;;8.10;;
24451;SDS011;13350;50.984;5.822;2023-05-10T01:45:00;8.57;;;7.78;;
24451;SDS011;13350;50.984;5.822;2023-05-10T01:47:36;9.80;;;7.15;;
24451;SDS011;13350;50.984;5.822;2023-05-10T01:50:08;10.38;;;7.45;;
24451;SDS011;13350;50.984;5.822;2023-05-10T01:52:41;9.48;;;7.20;;
24451;SDS011;13350;50.984;5.822;2023-05-10T01:55:11;9.20;;;7.68;;
24451;SDS011;13350;50.984;5.822;2023-05-10T01:57:42;8.27;;;7.30;;
24451;SDS011;13350;50.984;5.822;2023-05-10T02:00:12;8.07;;;7.28;;
24451;SDS011;13350;50.984;5.822;2023-05-10T02:02:44;8.82;;;7.10;;
24451;SDS011;13350;50.984;5.822;2023-05-10T02:05:13;8.43;;;6.28;;
24451;SDS011;13350;50.984;5.822;2023-05-10T02:07:41;8.40;;;6.88;;
24451;SDS011;13350;50.984;5.822;2023-05-10T02:10:09;6.65;;;6.00;;
24451;SDS011;13350;50.984;5.822;2023-05-10T02:12:39;7.80;;;6.65;;
24451;SDS011;13350;50.984;5.822;2023-05-10T02:15:09;7.85;;;7.13;;
24451;SDS011;13350;50.984;5.822;2023-05-10T02:17:39;8.35;;;6.05;;
24451;SDS011;13350;50.984;5.822;2023-05-10T02:20:10;7.35;;;5.57;;
24451;SDS011;13350;50.984;5.822;2023-05-10T02:22:39;6.70;;;6.00;;
24451;SDS011;13350;50.984;5.822;2023-05-10T02:25:08;6.53;;;5.50;;
24451;SDS011;13350;50.984;5.822;2023-05-10T02:27:37;8.18;;;5.85;;
24451;SDS011;13350;50.984;5.822;2023-05-10T02:30:05;7.18;;;5.85;;
24451;SDS011;13350;50.984;5.822;2023-05-10T02:32:33;6.80;;;5.32;;
24451;SDS011;13350;50.984;5.822;2023-05-10T02:35:01;7.30;;;5.93;;
24451;SDS011;13350;50.984;5.822;2023-05-10T02:37:31;7.40;;;5.82;;
24451;SDS011;13350;50.984;5.822;2023-05-10T02:40:00;8.20;;;6.15;;
24451;SDS011;13350;50.984;5.822;2023-05-10T02:42:31;8.63;;;5.85;;
24451;SDS011;13350;50.984;5.822;2023-05-10T02:45:02;8.43;;;5.65;;
24451;SDS011;13350;50.984;5.822;2023-05-10T02:47:34;7.80;;;5.25;;
24451;SDS011;13350;50.984;5.822;2023-05-10T02:50:01;10.07;;;5.72;;
24451;SDS011;13350;50.984;5.822;2023-05-10T02:52:30;7.93;;;5.35;;
24451;SDS011;13350;50.984;5.822;2023-05-10T02:55:06;8.45;;;5.40;;
24451;SDS011;13350;50.984;5.822;2023-05-10T02:57:36;6.93;;;5.75;;
24451;SDS011;13350;50.984;5.822;2023-05-10T03:00:07;10.20;;;5.40;;
24451;SDS011;13350;50.984;5.822;2023-05-10T03:02:35;10.00;;;5.78;;
24451;SDS011;13350;50.984;5.822;2023-05-10T03:05:03;8.82;;;5.72;;
24451;SDS011;13350;50.984;5.822;2023-05-10T03:07:30;9.25;;;5.72;;
24451;SDS011;13350;50.984;5.822;2023-05-10T03:10:00;7.95;;;5.60;;
24451;SDS011;13350;50.984;5.822;2023-05-10T03:12:31;9.48;;;6.18;;
24451;SDS011;13350;50.984;5.822;2023-05-10T03:15:10;8.45;;;6.07;;
24451;SDS011;13350;50.984;5.822;2023-05-10T03:17:45;9.63;;;6.22;;
24451;SDS011;13350;50.984;5.822;2023-05-10T03:20:16;8.35;;;6.38;;
24451;SDS011;13350;50.984;5.822;2023-05-10T03:22:50;7.68;;;6.28;;
24451;SDS011;13350;50.984;5.822;2023-05-10T03:25:23;7.47;;;5.90;;
24451;SDS011;13350;50.984;5.822;2023-05-10T03:27:51;9.82;;;6.45;;
24451;SDS011;13350;50.984;5.822;2023-05-10T03:30:19;9.05;;;6.30;;
24451;SDS011;13350;50.984;5.822;2023-05-10T03:32:46;11.95;;;6.38;;
24451;SDS011;13350;50.984;5.822;2023-05-10T03:35:13;10.23;;;6.50;;
24451;SDS011;13350;50.984;5.822;2023-05-10T03:37:41;11.20;;;7.28;;
24451;SDS011;13350;50.984;5.822;2023-05-10T03:40:09;9.48;;;6.90;;
24451;SDS011;13350;50.984;5.822;2023-05-10T03:42:38;9.80;;;6.80;;
24451;SDS011;13350;50.984;5.822;2023-05-10T03:45:06;14.20;;;7.88;;
24451;SDS011;13350;50.984;5.822;2023-05-10T03:47:34;10.77;;;7.20;;
24451;SDS011;13350;50.984;5.822;2023-05-10T03:50:01;10.57;;;7.43;;
24451;SDS011;13350;50.984;5.822;2023-05-10T03:52:28;13.98;;;8.38;;
24451;SDS011;13350;50.984;5.822;2023-05-10T03:54:57;10.77;;;7.82;;
24451;SDS011;13350;50.984;5.822;2023-05-10T03:57:24;11.43;;;7.55;;
24451;SDS011;13350;50.984;5.822;2023-05-10T03:59:52;10.90;;;8.18;;
24451;SDS011;13350;50.984;5.822;2023-05-10T04:02:20;11.50;;;7.85;;
24451;SDS011;13350;50.984;5.822;2023-05-10T04:04:47;10.88;;;8.45;;
24451;SDS011;13350;50.984;5.822;2023-05-10T04:07:14;12.20;;;8.32;;
24451;SDS011;13350;50.984;5.822;2023-05-10T04:09:41;12.77;;;8.32;;
24451;SDS011;13350;50.984;5.822;2023-05-10T04:12:08;11.63;;;7.95;;
24451;SDS011;13350;50.984;5.822;2023-05-10T04:14:36;11.50;;;8.50;;
24451;SDS011;13350;50.984;5.822;2023-05-10T04:17:04;14.20;;;9.68;;
24451;SDS011;13350;50.984;5.822;2023-05-10T04:19:32;15.85;;;9.40;;
24451;SDS011;13350;50.984;5.822;2023-05-10T04:22:00;17.33;;;9.65;;
24451;SDS011;13350;50.984;5.822;2023-05-10T04:24:29;13.23;;;9.55;;
24451;SDS011;13350;50.984;5.822;2023-05-10T04:26:56;15.40;;;10.73;;
24451;SDS011;13350;50.984;5.822;2023-05-10T04:29:23;15.55;;;9.98;;
24451;SDS011;13350;50.984;5.822;2023-05-10T04:31:51;16.98;;;10.80;;
24451;SDS011;13350;50.984;5.822;2023-05-10T04:34:21;17.88;;;10.43;;
24451;SDS011;13350;50.984;5.822;2023-05-10T04:36:48;15.52;;;11.02;;
24451;SDS011;13350;50.984;5.822;2023-05-10T04:39:15;16.88;;;11.45;;
24451;SDS011;13350;50.984;5.822;2023-05-10T04:41:43;14.70;;;10.32;;
24451;SDS011;13350;50.984;5.822;2023-05-10T04:44:10;15.38;;;11.02;;
24451;SDS011;13350;50.984;5.822;2023-05-10T04:46:37;15.95;;;10.70;;
24451;SDS011;13350;50.984;5.822;2023-05-10T04:49:04;16.13;;;11.55;;
24451;SDS011;13350;50.984;5.822;2023-05-10T04:51:33;16.35;;;11.25;;
24451;SDS011;13350;50.984;5.822;2023-05-10T04:54:00;17.17;;;11.85;;
24451;SDS011;13350;50.984;5.822;2023-05-10T04:56:27;17.40;;;11.88;;
24451;SDS011;13350;50.984;5.822;2023-05-10T04:58:55;16.80;;;11.40;;
24451;SDS011;13350;50.984;5.822;2023-05-10T05:01:22;20.95;;;11.27;;
24451;SDS011;13350;50.984;5.822;2023-05-10T05:03:49;17.17;;;10.93;;
24451;SDS011;13350;50.984;5.822;2023-05-10T05:06:17;17.25;;;10.63;;
24451;SDS011;13350;50.984;5.822;2023-05-10T05:08:47;16.80;;;10.55;;
24451;SDS011;13350;50.984;5.822;2023-05-10T05:11:15;17.48;;;10.63;;
24451;SDS011;13350;50.984;5.822;2023-05-10T05:13:42;15.32;;;11.20;;
24451;SDS011;13350;50.984;5.822;2023-05-10T05:16:10;16.45;;;10.57;;
24451;SDS011;13350;50.984;5.822;2023-05-10T05:18:37;13.93;;;10.10;;
24451;SDS011;13350;50.984;5.822;2023-05-10T05:21:13;13.95;;;10.00;;
24451;SDS011;13350;50.984;5.822;2023-05-10T05:23:41;14.27;;;9.20;;
24451;SDS011;13350;50.984;5.822;2023-05-10T05:26:10;13.88;;;10.05;;
24451;SDS011;13350;50.984;5.822;2023-05-10T05:28:37;12.90;;;9.63;;
24451;SDS011;13350;50.984;5.822;2023-05-10T05:31:05;12.48;;;9.25;;
24451;SDS011;13350;50.984;5.822;2023-05-10T05:33:32;12.05;;;9.18;;
24451;SDS011;13350;50.984;5.822;2023-05-10T05:36:00;10.93;;;8.35;;
24451;SDS011;13350;50.984;5.822;2023-05-10T05:38:28;14.75;;;9.63;;
24451;SDS011;13350;50.984;5.822;2023-05-10T05:40:55;11.98;;;9.70;;
24451;SDS011;13350;50.984;5.822;2023-05-10T05:43:23;13.02;;;8.95;;
24451;SDS011;13350;50.984;5.822;2023-05-10T05:45:51;11.82;;;8.98;;
24451;SDS011;13350;50.984;5.822;2023-05-10T05:48:19;13.10;;;8.80;;
24451;SDS011;13350;50.984;5.822;2023-05-10T05:50:46;11.93;;;9.35;;
24451;SDS011;13350;50.984;5.822;2023-05-10T05:53:13;14.10;;;9.32;;
24451;SDS011;13350;50.984;5.822;2023-05-10T05:55:45;11.30;;;8.80;;
24451;SDS011;13350;50.984;5.822;2023-05-10T05:58:18;8.05;;;6.00;;
24451;SDS011;13350;50.984;5.822;2023-05-10T06:00:47;11.65;;;7.63;;
24451;SDS011;13350;50.984;5.822;2023-05-10T06:03:14;9.13;;;6.70;;
24451;SDS011;13350;50.984;5.822;2023-05-10T06:05:41;9.48;;;6.78;;
24451;SDS011;13350;50.984;5.822;2023-05-10T06:08:09;11.20;;;6.35;;
24451;SDS011;13350;50.984;5.822;2023-05-10T06:10:36;10.05;;;5.75;;
24451;SDS011;13350;50.984;5.822;2023-05-10T06:13:03;9.70;;;6.10;;
24451;SDS011;13350;50.984;5.822;2023-05-10T06:15:30;7.30;;;5.15;;
24451;SDS011;13350;50.984;5.822;2023-05-10T06:18:00;5.50;;;3.95;;
24451;SDS011;13350;50.984;5.822;2023-05-10T06:20:27;6.32;;;4.57;;
24451;SDS011;13350;50.984;5.822;2023-05-10T06:22:56;6.85;;;4.30;;
24451;SDS011;13350;50.984;5.822;2023-05-10T06:25:24;6.68;;;4.22;;
24451;SDS011;13350;50.984;5.822;2023-05-10T06:27:51;5.00;;;4.20;;
24451;SDS011;13350;50.984;5.822;2023-05-10T06:30:22;6.05;;;4.63;;
24451;SDS011;13350;50.984;5.822;2023-05-10T06:32:53;5.10;;;4.22;;
24451;SDS011;13350;50.984;5.822;2023-05-10T06:35:22;8.23;;;6.22;;
24451;SDS011;13350;50.984;5.822;2023-05-10T06:37:49;10.32;;;8.50;;
24451;SDS011;13350;50.984;5.822;2023-05-10T06:40:17;13.35;;;8.48;;
24451;SDS011;13350;50.984;5.822;2023-05-10T06:42:44;13.15;;;9.73;;
24451;SDS011;13350;50.984;5.822;2023-05-10T06:45:12;13.23;;;10.48;;
24451;SDS011;13350;50.984;5.822;2023-05-10T06:47:39;14.68;;;10.90;;
24451;SDS011;13350;50.984;5.822;2023-05-10T06:50:07;15.10;;;11.20;;
24451;SDS011;13350;50.984;5.822;2023-05-10T06:52:38;15.73;;;12.02;;
24451;SDS011;13350;50.984;5.822;2023-05-10T06:55:05;18.35;;;12.13;;
24451;SDS011;13350;50.984;5.822;2023-05-10T06:57:33;16.13;;;11.65;;
24451;SDS011;13350;50.984;5.822;2023-05-10T07:00:01;15.15;;;11.05;;
24451;SDS011;13350;50.984;5.822;2023-05-10T07:02:30;17.38;;;12.88;;
24451;SDS011;13350;50.984;5.822;2023-05-10T07:04:57;16.38;;;12.43;;
24451;SDS011;13350;50.984;5.822;2023-05-10T07:07:24;21.30;;;13.50;;
24451;SDS011;13350;50.984;5.822;2023-05-10T07:09:53;19.13;;;13.15;;
24451;SDS011;13350;50.984;5.822;2023-05-10T07:12:21;19.10;;;13.65;;
24451;SDS011;13350;50.984;5.822;2023-05-10T07:14:48;19.65;;;13.65;;
24451;SDS011;13350;50.984;5.822;2023-05-10T07:17:16;17.77;;;12.05;;
24451;SDS011;13350;50.984;5.822;2023-05-10T07:19:43;22.17;;;14.52;;
24451;SDS011;13350;50.984;5.822;2023-05-10T07:22:10;18.98;;;12.93;;
24451;SDS011;13350;50.984;5.822;2023-05-10T07:24:38;18.90;;;12.65;;
24451;SDS011;13350;50.984;5.822;2023-05-10T07:27:07;22.92;;;14.95;;
24451;SDS011;13350;50.984;5.822;2023-05-10T07:29:34;21.15;;;13.32;;
24451;SDS011;13350;50.984;5.822;2023-05-10T07:32:02;25.38;;;15.27;;
24451;SDS011;13350;50.984;5.822;2023-05-10T07:34:30;27.40;;;15.40;;
24451;SDS011;13350;50.984;5.822;2023-05-10T07:36:57;24.48;;;14.25;;
24451;SDS011;13350;50.984;5.822;2023-05-10T07:39:25;22.17;;;13.73;;
24451;SDS011;13350;50.984;5.822;2023-05-10T07:41:52;26.70;;;15.18;;
24451;SDS011;13350;50.984;5.822;2023-05-10T07:44:21;23.45;;;15.05;;
24451;SDS011;13350;50.984;5.822;2023-05-10T07:46:48;21.10;;;13.85;;
24451;SDS011;13350;50.984;5.822;2023-05-10T07:49:15;17.70;;;12.55;;
24451;SDS011;13350;50.984;5.822;2023-05-10T07:51:43;16.67;;;11.65;;
24451;SDS011;13350;50.984;5.822;2023-05-10T07:54:10;20.05;;;12.18;;
24451;SDS011;13350;50.984;5.822;2023-05-10T07:56:37;24.50;;;13.77;;
24451;SDS011;13350;50.984;5.822;2023-05-10T07:59:09;20.40;;;12.02;;
24451;SDS011;13350;50.984;5.822;2023-05-10T08:01:42;19.48;;;12.25;;
24451;SDS011;13350;50.984;5.822;2023-05-10T08:04:09;25.85;;;13.70;;
24451;SDS011;13350;50.984;5.822;2023-05-10T08:06:36;21.50;;;11.52;;
24451;SDS011;13350;50.984;5.822;2023-05-10T08:09:03;18.90;;;11.07;;
24451;SDS011;13350;50.984;5.822;2023-05-10T08:11:31;15.70;;;10.23;;
24451;SDS011;13350;50.984;5.822;2023-05-10T08:13:58;17.05;;;11.10;;
24451;SDS011;13350;50.984;5.822;2023-05-10T08:16:25;12.98;;;9.50;;
24451;SDS011;13350;50.984;5.822;2023-05-10T08:18:54;12.93;;;8.55;;
24451;SDS011;13350;50.984;5.822;2023-05-10T08:21:21;13.48;;;9.40;;
24451;SDS011;13350;50.984;5.822;2023-05-10T08:23:48;18.13;;;9.45;;
24451;SDS011;13350;50.984;5.822;2023-05-10T08:26:15;19.23;;;8.90;;
24451;SDS011;13350;50.984;5.822;2023-05-10T08:28:42;15.75;;;9.30;;
24451;SDS011;13350;50.984;5.822;2023-05-10T08:31:10;14.73;;;9.25;;
24451;SDS011;13350;50.984;5.822;2023-05-10T08:33:37;13.50;;;8.75;;
24451;SDS011;13350;50.984;5.822;2023-05-10T08:36:05;14.77;;;9.65;;
24451;SDS011;13350;50.984;5.822;2023-05-10T08:38:33;19.45;;;10.65;;
24451;SDS011;13350;50.984;5.822;2023-05-10T08:41:00;18.55;;;10.40;;
24451;SDS011;13350;50.984;5.822;2023-05-10T08:43:29;14.98;;;9.82;;
24451;SDS011;13350;50.984;5.822;2023-05-10T08:45:58;14.50;;;9.60;;
24451;SDS011;13350;50.984;5.822;2023-05-10T08:48:28;12.38;;;8.52;;
24451;SDS011;13350;50.984;5.822;2023-05-10T08:50:56;11.13;;;8.32;;
24451;SDS011;13350;50.984;5.822;2023-05-10T08:53:29;13.93;;;9.18;;
24451;SDS011;13350;50.984;5.822;2023-05-10T08:56:00;13.98;;;9.68;;
24451;SDS011;13350;50.984;5.822;2023-05-10T08:58:28;12.90;;;9.18;;
24451;SDS011;13350;50.984;5.822;2023-05-10T09:00:56;12.05;;;7.88;;
24451;SDS011;13350;50.984;5.822;2023-05-10T09:03:24;8.63;;;6.28;;
24451;SDS011;13350;50.984;5.822;2023-05-10T09:05:51;9.13;;;6.50;;
24451;SDS011;13350;50.984;5.822;2023-05-10T09:08:21;7.25;;;5.95;;
24451;SDS011;13350;50.984;5.822;2023-05-10T09:10:53;7.28;;;5.93;;
24451;SDS011;13350;50.984;5.822;2023-05-10T09:13:22;6.85;;;5.35;;
24451;SDS011;13350;50.984;5.822;2023-05-10T09:15:50;4.85;;;4.15;;
24451;SDS011;13350;50.984;5.822;2023-05-10T09:18:18;5.22;;;4.70;;
24451;SDS011;13350;50.984;5.822;2023-05-10T09:20:45;6.65;;;4.82;;
24451;SDS011;13350;50.984;5.822;2023-05-10T09:23:12;5.53;;;4.68;;
24451;SDS011;13350;50.984;5.822;2023-05-10T09:25:41;6.55;;;4.97;;
24451;SDS011;13350;50.984;5.822;2023-05-10T09:28:09;5.55;;;4.10;;
24451;SDS011;13350;50.984;5.822;2023-05-10T09:30:37;5.28;;;4.38;;
24451;SDS011;13350;50.984;5.822;2023-05-10T09:33:04;4.97;;;4.18;;
24451;SDS011;13350;50.984;5.822;2023-05-10T09:35:32;4.90;;;3.92;;
24451;SDS011;13350;50.984;5.822;2023-05-10T09:38:00;4.47;;;3.70;;
24451;SDS011;13350;50.984;5.822;2023-05-10T09:40:29;5.50;;;4.15;;
24451;SDS011;13350;50.984;5.822;2023-05-10T09:42:57;5.03;;;3.80;;
24451;SDS011;13350;50.984;5.822;2023-05-10T09:45:28;3.38;;;3.08;;
24451;SDS011;13350;50.984;5.822;2023-05-10T09:47:56;3.70;;;3.17;;
24451;SDS011;13350;50.984;5.822;2023-05-10T09:50:24;5.57;;;3.40;;
24451;SDS011;13350;50.984;5.822;2023-05-10T09:52:53;4.50;;;3.65;;
24451;SDS011;13350;50.984;5.822;2023-05-10T09:55:24;4.45;;;3.85;;
24451;SDS011;13350;50.984;5.822;2023-05-10T09:57:58;5.20;;;3.90;;
24451;SDS011;13350;50.984;5.822;2023-05-10T10:00:27;4.35;;;3.95;;
24451;SDS011;13350;50.984;5.822;2023-05-10T10:03:00;4.70;;;3.33;;
24451;SDS011;13350;50.984;5.822;2023-05-10T10:05:28;4.22;;;3.83;;
24451;SDS011;13350;50.984;5.822;2023-05-10T10:07:55;4.68;;;3.53;;
24451;SDS011;13350;50.984;5.822;2023-05-10T10:10:24;4.00;;;3.58;;
24451;SDS011;13350;50.984;5.822;2023-05-10T10:12:51;4.18;;;3.28;;
24451;SDS011;13350;50.984;5.822;2023-05-10T10:15:18;3.90;;;3.50;;
24451;SDS011;13350;50.984;5.822;2023-05-10T10:17:48;4.18;;;3.35;;
24451;SDS011;13350;50.984;5.822;2023-05-10T10:20:17;4.32;;;3.47;;
24451;SDS011;13350;50.984;5.822;2023-05-10T10:22:46;5.32;;;3.95;;
24451;SDS011;13350;50.984;5.822;2023-05-10T10:25:14;4.68;;;3.97;;
24451;SDS011;13350;50.984;5.822;2023-05-10T10:27:45;4.00;;;3.42;;
24451;SDS011;13350;50.984;5.822;2023-05-10T10:30:24;5.35;;;3.38;;
24451;SDS011;13350;50.984;5.822;2023-05-10T10:33:01;5.60;;;4.43;;
24451;SDS011;13350;50.984;5.822;2023-05-10T10:35:52;9.65;;;4.80;;
24451;SDS011;13350;50.984;5.822;2023-05-10T10:38:20;7.72;;;5.10;;
24451;SDS011;13350;50.984;5.822;2023-05-10T10:40:48;3.83;;;3.33;;
24451;SDS011;13350;50.984;5.822;2023-05-10T10:43:28;5.20;;;4.00;;
24451;SDS011;13350;50.984;5.822;2023-05-10T10:48:49;6.95;;;4.80;;
24451;SDS011;13350;50.984;5.822;2023-05-10T10:51:36;4.75;;;4.18;;
24451;SDS011;13350;50.984;5.822;2023-05-10T10:54:08;5.90;;;3.28;;
24451;SDS011;13350;50.984;5.822;2023-05-10T10:56:36;6.55;;;4.03;;
24451;SDS011;13350;50.984;5.822;2023-05-10T10:59:03;4.43;;;2.83;;
24451;SDS011;13350;50.984;5.822;2023-05-10T11:01:32;3.83;;;3.13;;
24451;SDS011;13350;50.984;5.822;2023-05-10T11:04:20;4.93;;;3.50;;
24451;SDS011;13350;50.984;5.822;2023-05-10T11:06:47;3.38;;;3.05;;
24451;SDS011;13350;50.984;5.822;2023-05-10T11:09:14;3.33;;;2.80;;
24451;SDS011;13350;50.984;5.822;2023-05-10T11:11:49;4.68;;;2.78;;
24451;SDS011;13350;50.984;5.822;2023-05-10T11:14:19;5.75;;;4.15;;
24451;SDS011;13350;50.984;5.822;2023-05-10T11:16:47;5.95;;;3.58;;
24451;SDS011;13350;50.984;5.822;2023-05-10T11:19:15;5.22;;;3.45;;
24451;SDS011;13350;50.984;5.822;2023-05-10T11:21:48;6.63;;;4.60;;
24451;SDS011;13350;50.984;5.822;2023-05-10T11:24:17;4.50;;;2.83;;
24451;SDS011;13350;50.984;5.822;2023-05-10T11:26:49;3.53;;;2.92;;
24451;SDS011;13350;50.984;5.822;2023-05-10T11:29:16;3.45;;;2.67;;
24451;SDS011;13350;50.984;5.822;2023-05-10T11:31:44;3.47;;;2.60;;
24451;SDS011;13350;50.984;5.822;2023-05-10T11:34:13;5.90;;;3.42;;
24451;SDS011;13350;50.984;5.822;2023-05-10T11:36:52;5.20;;;2.90;;
24451;SDS011;13350;50.984;5.822;2023-05-10T11:39:25;3.83;;;2.53;;
24451;SDS011;13350;50.984;5.822;2023-05-10T11:41:53;4.65;;;3.42;;
24451;SDS011;13350;50.984;5.822;2023-05-10T11:44:20;4.93;;;3.70;;
24451;SDS011;13350;50.984;5.822;2023-05-10T11:46:48;7.45;;;4.38;;
24451;SDS011;13350;50.984;5.822;2023-05-10T11:49:15;6.47;;;4.13;;
24451;SDS011;13350;50.984;5.822;2023-05-10T11:51:43;7.10;;;4.00;;
24451;SDS011;13350;50.984;5.822;2023-05-10T11:54:12;4.68;;;3.20;;
24451;SDS011;13350;50.984;5.822;2023-05-10T11:56:39;3.53;;;2.80;;
24451;SDS011;13350;50.984;5.822;2023-05-10T11:59:07;3.88;;;3.35;;
24451;SDS011;13350;50.984;5.822;2023-05-10T12:01:34;6.75;;;3.63;;
24451;SDS011;13350;50.984;5.822;2023-05-10T12:04:02;8.35;;;4.35;;
24451;SDS011;13350;50.984;5.822;2023-05-10T12:06:30;5.78;;;4.00;;
24451;SDS011;13350;50.984;5.822;2023-05-10T12:09:01;3.85;;;3.03;;
24451;SDS011;13350;50.984;5.822;2023-05-10T12:11:36;3.58;;;3.17;;
24451;SDS011;13350;50.984;5.822;2023-05-10T12:14:05;3.90;;;3.10;;
24451;SDS011;13350;50.984;5.822;2023-05-10T12:16:32;4.78;;;4.13;;
24451;SDS011;13350;50.984;5.822;2023-05-10T12:19:00;6.63;;;4.47;;
24451;SDS011;13350;50.984;5.822;2023-05-10T12:21:28;3.58;;;3.22;;
24451;SDS011;13350;50.984;5.822;2023-05-10T12:23:58;4.18;;;3.72;;
24451;SDS011;13350;50.984;5.822;2023-05-10T12:26:28;5.18;;;3.75;;
24451;SDS011;13350;50.984;5.822;2023-05-10T12:29:11;4.20;;;3.53;;
24451;SDS011;13350;50.984;5.822;2023-05-10T12:31:49;7.80;;;3.92;;
24451;SDS011;13350;50.984;5.822;2023-05-10T12:34:23;5.65;;;4.00;;
24451;SDS011;13350;50.984;5.822;2023-05-10T12:36:51;6.00;;;3.78;;
24451;SDS011;13350;50.984;5.822;2023-05-10T12:39:19;5.97;;;4.30;;
24451;SDS011;13350;50.984;5.822;2023-05-10T12:41:46;7.60;;;4.18;;
24451;SDS011;13350;50.984;5.822;2023-05-10T12:44:14;6.72;;;3.08;;
24451;SDS011;13350;50.984;5.822;2023-05-10T12:46:42;6.97;;;3.88;;
24451;SDS011;13350;50.984;5.822;2023-05-10T12:49:09;5.63;;;3.55;;
24451;SDS011;13350;50.984;5.822;2023-05-10T12:51:36;5.57;;;3.80;;
24451;SDS011;13350;50.984;5.822;2023-05-10T12:54:04;3.05;;;2.72;;
24451;SDS011;13350;50.984;5.822;2023-05-10T12:56:31;3.55;;;2.85;;
24451;SDS011;13350;50.984;5.822;2023-05-10T12:58:58;3.65;;;2.88;;
24451;SDS011;13350;50.984;5.822;2023-05-10T13:01:27;2.40;;;2.20;;
24451;SDS011;13350;50.984;5.822;2023-05-10T13:03:54;2.13;;;1.88;;
24451;SDS011;13350;50.984;5.822;2023-05-10T13:06:21;2.97;;;2.40;;
24451;SDS011;13350;50.984;5.822;2023-05-10T13:08:48;2.47;;;1.98;;
24451;SDS011;13350;50.984;5.822;2023-05-10T13:11:16;1.92;;;1.73;;
24451;SDS011;13350;50.984;5.822;2023-05-10T13:13:45;1.83;;;1.52;;
24451;SDS011;13350;50.984;5.822;2023-05-10T13:16:12;2.58;;;1.90;;
24451;SDS011;13350;50.984;5.822;2023-05-10T13:18:40;4.47;;;2.85;;
24451;SDS011;13350;50.984;5.822;2023-05-10T13:21:08;3.63;;;2.35;;
24451;SDS011;13350;50.984;5.822;2023-05-10T13:23:36;2.45;;;1.85;;
24451;SDS011;13350;50.984;5.822;2023-05-10T13:26:03;2.40;;;2.17;;
24451;SDS011;13350;50.984;5.822;2023-05-10T13:28:30;1.40;;;1.30;;
24451;SDS011;13350;50.984;5.822;2023-05-10T13:30:58;2.30;;;1.52;;
24451;SDS011;13350;50.984;5.822;2023-05-10T13:33:25;2.45;;;1.77;;
24451;SDS011;13350;50.984;5.822;2023-05-10T13:35:54;2.50;;;1.73;;
24451;SDS011;13350;50.984;5.822;2023-05-10T13:38:21;2.00;;;1.80;;
24451;SDS011;13350;50.984;5.822;2023-05-10T13:40:48;2.08;;;1.42;;
24451;SDS011;13350;50.984;5.822;2023-05-10T13:43:17;2.50;;;2.10;;
24451;SDS011;13350;50.984;5.822;2023-05-10T13:45:45;3.42;;;1.92;;
24451;SDS011;13350;50.984;5.822;2023-05-10T13:48:12;1.95;;;1.75;;
24451;SDS011;13350;50.984;5.822;2023-05-10T13:50:39;2.40;;;1.77;;
24451;SDS011;13350;50.984;5.822;2023-05-10T13:53:08;2.70;;;1.75;;
24451;SDS011;13350;50.984;5.822;2023-05-10T13:55:35;2.63;;;2.10;;
24451;SDS011;13350;50.984;5.822;2023-05-10T13:58:02;2.63;;;2.10;;
24451;SDS011;13350;50.984;5.822;2023-05-10T14:00:29;2.58;;;1.98;;
24451;SDS011;13350;50.984;5.822;2023-05-10T14:02:57;2.20;;;2.00;;
24451;SDS011;13350;50.984;5.822;2023-05-10T14:05:24;4.05;;;2.10;;
24451;SDS011;13350;50.984;5.822;2023-05-10T14:07:51;4.32;;;2.17;;
24451;SDS011;13350;50.984;5.822;2023-05-10T14:10:20;5.32;;;2.80;;
24451;SDS011;13350;50.984;5.822;2023-05-10T14:12:47;2.42;;;2.00;;
24451;SDS011;13350;50.984;5.822;2023-05-10T14:15:14;2.20;;;1.73;;
24451;SDS011;13350;50.984;5.822;2023-05-10T14:17:42;1.90;;;1.40;;
24451;SDS011;13350;50.984;5.822;2023-05-10T14:20:09;2.08;;;1.67;;
24451;SDS011;13350;50.984;5.822;2023-05-10T14:22:37;1.83;;;1.58;;
24451;SDS011;13350;50.984;5.822;2023-05-10T14:25:05;1.30;;;1.20;;
24451;SDS011;13350;50.984;5.822;2023-05-10T14:27:34;1.60;;;1.25;;
24451;SDS011;13350;50.984;5.822;2023-05-10T14:30:01;1.40;;;1.30;;
24451;SDS011;13350;50.984;5.822;2023-05-10T14:32:29;1.55;;;1.40;;
24451;SDS011;13350;50.984;5.822;2023-05-10T14:34:57;1.50;;;1.40;;
24451;SDS011;13350;50.984;5.822;2023-05-10T14:37:24;1.35;;;1.25;;
24451;SDS011;13350;50.984;5.822;2023-05-10T14:39:51;4.28;;;1.67;;
24451;SDS011;13350;50.984;5.822;2023-05-10T14:42:19;2.17;;;1.40;;
24451;SDS011;13350;50.984;5.822;2023-05-10T14:44:47;2.78;;;1.77;;
24451;SDS011;13350;50.984;5.822;2023-05-10T14:47:15;1.95;;;1.67;;
24451;SDS011;13350;50.984;5.822;2023-05-10T14:49:42;2.90;;;2.08;;
24451;SDS011;13350;50.984;5.822;2023-05-10T14:52:09;5.68;;;2.90;;